This is the latest recevied weather packets stored in our database for station/object N4CVG. If no packets are shown the sender has not sent any weather packets the latest 10 day(s).
| Time | Temp. | Humidity | Pressure | Rain* | Wind** | Luminosity | Snow |
|---|---|---|---|---|---|---|---|
| 1777626001 | 5.56° C | 90% | 1014.1 hPa | 0 mm | - | - | - |
| 1777618802 | 6.67° C | 87% | 1014.6 hPa | 0 mm | - | - | - |
| 1777617601 | 7.22° C | 87% | 1014.8 hPa | 0 mm | - | - | - |
| 1777617022 | 7.22° C | 86% | 1014.9 hPa | 0 mm | - | - | - |
| 1777615800 | 7.22° C | 85% | 1015.2 hPa | 0 mm | - | - | - |
| 1777602601 | 9.44° C | 66% | 1015.5 hPa | 0 mm | - | - | - |
| 1777602001 | 10° C | 67% | 1015.6 hPa | 0 mm | - | - | - |
| 1777601402 | 10.56° C | 61% | 1015.5 hPa | 0 mm | - | - | - |
| 1777598402 | 11.11° C | 61% | 1015 hPa | 0 mm | - | - | - |
| 1777597200 | 11.67° C | 59% | 1015 hPa | 0 mm | - | - | - |
| 1777596001 | 12.22° C | 57% | 1014.8 hPa | 0 mm | - | - | - |
| 1777582801 | 17.78° C | 49% | 1014.8 hPa | 0 mm | - | - | - |
| 1777581002 | 17.78° C | 47% | 1015.1 hPa | 0 mm | - | - | - |
| 1777580401 | 16.67° C | 47% | 1015.3 hPa | 0 mm | - | - | - |
| 1777576202 | 15.56° C | 54% | 1015.6 hPa | 0 mm | - | - | - |
| 1777575601 | 15.56° C | 53% | 1015.6 hPa | 0 mm | - | - | - |
| 1777572001 | 13.89° C | 61% | 1016 hPa | 0 mm | - | - | - |
| 1777567201 | 13.33° C | 64% | 1016.1 hPa | 0 mm | - | - | - |
| 1777564822 | 12.22° C | 69% | 1016.4 hPa | 0 mm | - | - | - |
| 1777563001 | 11.67° C | 67% | 1016 hPa | 0 mm | - | - | - |
| 1777560002 | 11.11° C | 67% | 1015.6 hPa | 0 mm | - | - | - |
| 1777557624 | 9.44° C | 71% | 1015.6 hPa | 0 mm | - | - | - |
| 1777556401 | 8.89° C | 77% | 1015.4 hPa | 0 mm | - | - | - |
| 1777551602 | 7.22° C | 84% | 1015 hPa | 0 mm | - | - | - |
| 1777548601 | 6.67° C | 87% | 1014.5 hPa | 0 mm | - | - | - |
* Rain latest hour (hover to see other rain measurements)
** Current wind speed in m/s (hover to see current wind gust speed)